createdAt,value
2023-03-02T00:00:58.041Z,16.57
2023-03-02T00:03:29.094Z,16.00
2023-03-02T00:05:58.877Z,12.63
2023-03-02T00:08:27.529Z,14.00
2023-03-02T00:10:56.682Z,12.97
2023-03-02T00:13:25.180Z,14.30
2023-03-02T00:15:53.715Z,13.30
2023-03-02T00:18:22.141Z,17.80
2023-03-02T00:20:53.959Z,13.23
2023-03-02T00:23:25.054Z,13.33
2023-03-02T00:25:53.487Z,12.13
2023-03-02T00:28:21.899Z,15.17
2023-03-02T00:30:50.346Z,12.33
2023-03-02T00:33:19.796Z,12.23
2023-03-02T00:35:48.326Z,16.53
2023-03-02T00:38:18.455Z,11.00
2023-03-02T00:40:56.483Z,16.70
2023-03-02T00:43:27.963Z,12.00
2023-03-02T00:45:56.936Z,18.60
2023-03-02T00:48:25.406Z,12.10
2023-03-02T00:50:54.530Z,13.47
2023-03-02T00:53:25.096Z,24.30
2023-03-02T00:55:56.946Z,19.33
2023-03-02T00:58:25.578Z,16.00
2023-03-02T01:00:54.106Z,15.07
2023-03-02T01:03:22.645Z,19.00
2023-03-02T01:05:55.289Z,16.47
2023-03-02T01:08:25.291Z,16.13
2023-03-02T01:11:01.374Z,14.73
2023-03-02T01:13:30.053Z,9.87
2023-03-02T01:16:02.477Z,14.23
2023-03-02T01:18:32.118Z,12.33
2023-03-02T01:21:04.074Z,11.33
2023-03-02T01:23:34.253Z,12.00
2023-03-02T01:26:03.099Z,11.47
2023-03-02T01:28:31.579Z,10.20
2023-03-02T01:31:01.356Z,16.03
2023-03-02T01:33:29.872Z,13.17
2023-03-02T01:35:58.420Z,14.10
2023-03-02T01:38:27.040Z,14.90
2023-03-02T01:40:57.166Z,13.70
2023-03-02T01:43:25.591Z,14.77
2023-03-02T01:45:55.852Z,16.77
2023-03-02T01:48:28.325Z,14.53
2023-03-02T01:50:57.405Z,13.83
2023-03-02T01:53:27.315Z,16.87
2023-03-02T01:55:57.395Z,7.87
2023-03-02T01:58:26.464Z,9.57
2023-03-02T02:00:56.472Z,13.83
2023-03-02T02:03:26.876Z,14.37
2023-03-02T02:06:00.496Z,15.80
2023-03-02T02:08:28.977Z,16.67
2023-03-02T02:10:58.904Z,22.37
2023-03-02T02:13:27.366Z,16.10
2023-03-02T02:15:55.850Z,13.30
2023-03-02T02:18:24.252Z,13.10
2023-03-02T02:20:54.793Z,21.67
2023-03-02T02:23:28.216Z,14.73
2023-03-02T02:26:26.454Z,14.43
2023-03-02T02:28:58.867Z,14.30
2023-03-02T02:31:30.650Z,19.43
2023-03-02T02:34:02.108Z,17.20
2023-03-02T02:36:33.508Z,16.97
2023-03-02T02:39:04.276Z,9.23
2023-03-02T02:41:35.445Z,18.07
2023-03-02T02:44:07.188Z,25.67
2023-03-02T02:46:35.797Z,14.77
2023-03-02T02:49:04.980Z,10.80
2023-03-02T02:51:34.571Z,23.40
2023-03-02T02:54:03.718Z,16.07
2023-03-02T02:56:34.081Z,18.27
2023-03-02T02:59:04.148Z,14.97
2023-03-02T03:01:35.110Z,14.97
2023-03-02T03:04:04.815Z,13.70
2023-03-02T03:06:38.641Z,11.77
2023-03-02T03:09:07.473Z,12.03
2023-03-02T03:11:36.636Z,17.00
2023-03-02T03:14:08.373Z,12.40
2023-03-02T03:16:39.002Z,12.00
2023-03-02T03:19:10.207Z,18.13
2023-03-02T03:21:38.902Z,13.23
2023-03-02T03:24:07.878Z,11.93
2023-03-02T03:26:36.266Z,12.37
2023-03-02T03:29:05.176Z,13.57
2023-03-02T03:31:53.028Z,13.70
2023-03-02T03:34:23.479Z,15.97
2023-03-02T03:36:51.895Z,13.67
2023-03-02T03:39:21.320Z,14.47
2023-03-02T03:41:49.853Z,13.23
2023-03-02T03:44:18.446Z,11.70
2023-03-02T03:46:46.911Z,14.37
2023-03-02T03:49:15.498Z,22.30
2023-03-02T03:51:45.723Z,13.03
2023-03-02T03:54:14.345Z,13.20
2023-03-02T03:56:44.891Z,13.60
2023-03-02T03:59:14.687Z,16.33
2023-03-02T04:01:44.906Z,18.03
2023-03-02T04:04:15.304Z,11.63
2023-03-02T04:06:45.268Z,13.67
2023-03-02T04:09:15.572Z,19.10
2023-03-02T04:11:45.206Z,18.00
2023-03-02T04:14:14.905Z,8.23
2023-03-02T04:16:43.497Z,7.53
2023-03-02T04:19:12.467Z,15.93
2023-03-02T04:21:41.818Z,15.87
2023-03-02T04:24:12.106Z,9.93
2023-03-02T04:26:41.383Z,20.03
2023-03-02T04:29:10.344Z,13.93
2023-03-02T04:31:39.101Z,16.50
2023-03-02T04:34:07.691Z,14.30
2023-03-02T04:36:37.730Z,15.47
2023-03-02T04:39:06.730Z,13.50
2023-03-02T04:41:36.911Z,13.57
2023-03-02T04:44:05.419Z,12.63
2023-03-02T04:46:34.586Z,15.10
2023-03-02T04:49:03.379Z,18.77
2023-03-02T04:51:32.859Z,13.90
2023-03-02T04:54:13.100Z,14.23
2023-03-02T04:56:43.107Z,14.43
2023-03-02T04:59:11.585Z,17.10
2023-03-02T05:01:41.342Z,14.40
2023-03-02T05:04:09.943Z,14.40
2023-03-02T05:06:38.968Z,13.63
2023-03-02T05:09:07.505Z,10.77
2023-03-02T05:11:36.368Z,12.33
2023-03-02T05:14:08.726Z,15.53
2023-03-02T05:16:38.979Z,15.60
2023-03-02T05:19:08.748Z,16.30
2023-03-02T05:21:37.306Z,14.93
2023-03-02T05:24:05.853Z,17.60
2023-03-02T05:26:34.797Z,14.90
2023-03-02T05:29:19.944Z,15.87
2023-03-02T05:31:48.714Z,20.70
2023-03-02T05:34:17.943Z,23.73
2023-03-02T05:36:46.676Z,14.37
2023-03-02T05:39:15.232Z,14.63
2023-03-02T05:41:43.795Z,16.70
2023-03-02T05:44:12.682Z,10.67
2023-03-02T05:46:47.843Z,19.97
2023-03-02T05:49:25.135Z,15.97
2023-03-02T05:51:54.201Z,15.23
2023-03-02T05:54:25.023Z,24.70
2023-03-02T05:56:53.439Z,17.53
2023-03-02T06:11:14.484Z,10.80
2023-03-02T06:13:43.133Z,17.03
2023-03-02T06:16:12.921Z,16.33
2023-03-02T06:18:43.848Z,13.97
2023-03-02T06:21:14.217Z,10.80
2023-03-02T06:23:42.768Z,16.53
2023-03-02T06:26:11.390Z,11.40
2023-03-02T06:28:52.000Z,11.03
2023-03-02T06:31:21.990Z,18.43
2023-03-02T06:33:50.742Z,19.73
2023-03-02T06:36:21.434Z,14.67
2023-03-02T06:38:49.896Z,17.00
2023-03-02T06:41:18.740Z,15.53
2023-03-02T06:43:47.103Z,12.37
2023-03-02T06:46:15.552Z,12.30
2023-03-02T06:48:44.023Z,17.80
2023-03-02T06:51:12.950Z,15.50
2023-03-02T06:53:42.853Z,13.57
2023-03-02T06:56:11.640Z,10.17
2023-03-02T06:58:46.311Z,13.03
2023-03-02T07:01:14.660Z,18.27
2023-03-02T07:03:43.325Z,17.40
2023-03-02T07:06:13.117Z,15.30
2023-03-02T07:08:43.169Z,13.30
2023-03-02T07:11:12.480Z,19.73
2023-03-02T07:13:41.382Z,18.63
2023-03-02T07:16:10.430Z,25.00
2023-03-02T07:18:39.234Z,20.40
2023-03-02T07:21:08.844Z,15.07
2023-03-02T07:23:37.428Z,21.63
2023-03-02T07:26:08.811Z,14.40
2023-03-02T07:28:39.368Z,18.70
2023-03-02T07:31:08.112Z,14.67
2023-03-02T07:33:37.106Z,19.37
2023-03-02T07:36:05.988Z,15.03
2023-03-02T07:38:34.421Z,17.23
2023-03-02T07:41:08.990Z,27.13
2023-03-02T07:43:39.393Z,19.73
2023-03-02T07:46:08.052Z,19.63
2023-03-02T07:48:36.579Z,17.50
2023-03-02T07:51:09.898Z,20.00
2023-03-02T07:53:38.373Z,17.13
2023-03-02T07:56:12.468Z,15.87
2023-03-02T07:58:42.686Z,15.00
2023-03-02T08:01:16.004Z,14.10
2023-03-02T08:03:46.690Z,15.10
2023-03-02T08:06:15.162Z,19.23
2023-03-02T08:08:43.479Z,17.33
2023-03-02T08:11:12.668Z,13.47
2023-03-02T08:13:43.187Z,14.27
2023-03-02T08:16:13.679Z,15.43
2023-03-02T08:18:42.463Z,13.07
2023-03-02T08:21:19.715Z,12.67
2023-03-02T08:23:48.238Z,17.20
2023-03-02T08:26:17.616Z,21.77
2023-03-02T08:28:47.980Z,11.57
2023-03-02T08:31:22.593Z,13.30
2023-03-02T08:33:53.117Z,13.23
2023-03-02T08:36:23.931Z,11.33
2023-03-02T08:38:52.323Z,14.53
2023-03-02T08:41:27.363Z,14.63
2023-03-02T08:43:57.398Z,10.57
2023-03-02T08:46:25.833Z,14.63
2023-03-02T08:48:55.562Z,12.47
2023-03-02T08:51:24.961Z,14.33
2023-03-02T08:54:04.550Z,14.43
2023-03-02T08:56:34.106Z,14.23
2023-03-02T08:59:04.900Z,15.40
2023-03-02T09:01:34.844Z,15.90
2023-03-02T09:04:04.119Z,21.77
2023-03-02T09:06:33.583Z,14.90
2023-03-02T09:09:02.120Z,14.03
2023-03-02T09:11:33.040Z,14.00
2023-03-02T09:14:01.887Z,18.60
2023-03-02T09:16:32.364Z,19.67
2023-03-02T09:19:01.073Z,14.20
2023-03-02T09:21:29.613Z,12.63
2023-03-02T09:23:58.517Z,18.20
2023-03-02T09:26:27.035Z,16.10
2023-03-02T09:28:55.622Z,17.43
2023-03-02T09:31:24.271Z,23.57
2023-03-02T09:34:08.107Z,16.97
2023-03-02T09:36:42.713Z,18.20
2023-03-02T09:39:12.684Z,13.80
2023-03-02T09:42:06.552Z,12.13
2023-03-02T09:44:52.593Z,16.30
2023-03-02T09:47:35.831Z,13.77
2023-03-02T09:50:33.991Z,13.87
2023-03-02T09:53:13.894Z,14.50
2023-03-02T09:55:42.859Z,14.27
2023-03-02T09:58:16.913Z,15.80
2023-03-02T10:00:46.140Z,9.77
2023-03-02T10:03:18.643Z,13.30
2023-03-02T10:05:49.357Z,14.50
2023-03-02T10:08:22.269Z,12.77
2023-03-02T10:10:55.711Z,20.07
2023-03-02T10:13:25.664Z,14.53
2023-03-02T10:15:58.823Z,15.93
2023-03-02T10:18:30.993Z,13.43
2023-03-02T10:21:02.294Z,17.03
2023-03-02T10:23:59.810Z,14.73
2023-03-02T10:26:36.985Z,11.87
2023-03-02T10:29:12.671Z,16.77
2023-03-02T10:31:42.041Z,11.23
2023-03-02T10:34:11.999Z,13.03
2023-03-02T10:36:50.622Z,15.80
2023-03-02T10:39:19.984Z,11.00
2023-03-02T10:41:52.410Z,13.87
2023-03-02T10:44:23.364Z,13.00
2023-03-02T10:46:53.984Z,14.97
2023-03-02T10:49:26.954Z,9.97
2023-03-02T10:52:00.578Z,10.30
2023-03-02T10:54:29.859Z,9.03
2023-03-02T10:57:00.721Z,21.70
2023-03-02T10:59:43.325Z,16.13
2023-03-02T11:02:18.830Z,9.60
2023-03-02T11:04:47.705Z,11.10
2023-03-02T11:07:18.962Z,39.23
2023-03-02T11:09:57.826Z,12.13
2023-03-02T11:12:27.998Z,7.03
2023-03-02T11:15:15.260Z,12.63
2023-03-02T11:17:45.429Z,18.93
2023-03-02T11:20:16.745Z,26.57
2023-03-02T11:22:48.346Z,14.03
2023-03-02T11:25:21.575Z,10.87
2023-03-02T11:27:56.551Z,17.40
2023-03-02T11:30:27.099Z,12.43
2023-03-02T11:32:58.334Z,11.73
2023-03-02T11:35:31.214Z,10.07
2023-03-02T11:38:05.998Z,11.60
2023-03-02T11:40:36.345Z,10.70
2023-03-02T11:43:06.405Z,9.63
2023-03-02T11:45:37.005Z,11.40
2023-03-02T11:48:08.461Z,7.80
2023-03-02T11:50:39.588Z,13.70
2023-03-02T11:53:14.611Z,8.23
2023-03-02T11:55:48.749Z,10.97
2023-03-02T11:58:24.243Z,10.27
2023-03-02T12:01:00.887Z,14.67
2023-03-02T12:03:44.986Z,8.97
2023-03-02T12:06:36.830Z,10.10
2023-03-02T12:09:33.259Z,10.87
2023-03-02T12:12:28.489Z,7.83
2023-03-02T12:14:58.380Z,8.03
2023-03-02T12:17:33.873Z,8.23
2023-03-02T12:20:31.020Z,8.50
2023-03-02T12:23:25.100Z,10.97
2023-03-02T12:26:04.354Z,9.13
2023-03-02T12:28:41.524Z,9.87
2023-03-02T12:31:14.796Z,11.40
2023-03-02T12:33:47.744Z,12.10
2023-03-02T12:36:21.328Z,10.30
2023-03-02T12:39:14.794Z,9.80
2023-03-02T12:42:01.480Z,25.37
2023-03-02T12:44:43.898Z,13.20
2023-03-02T12:47:27.381Z,7.17
2023-03-02T12:49:58.840Z,7.70
2023-03-02T12:52:32.317Z,9.10
2023-03-02T12:55:02.590Z,7.10
2023-03-02T12:57:31.494Z,8.50
2023-03-02T13:00:01.964Z,9.20
2023-03-02T13:02:33.330Z,8.07
2023-03-02T13:05:03.825Z,8.83
2023-03-02T13:07:37.593Z,12.70
2023-03-02T13:10:10.636Z,15.90
2023-03-02T13:12:45.272Z,6.07
2023-03-02T13:15:18.045Z,5.30
2023-03-02T13:17:56.275Z,9.87
2023-03-02T13:20:26.730Z,8.30
2023-03-02T13:22:55.741Z,5.90
2023-03-02T13:25:32.652Z,6.53
2023-03-02T13:28:07.632Z,7.87
2023-03-02T13:30:50.088Z,9.10
2023-03-02T13:33:31.852Z,8.90
2023-03-02T13:36:00.110Z,8.50
2023-03-02T13:38:33.875Z,10.03
2023-03-02T13:41:02.266Z,7.13
2023-03-02T13:43:39.089Z,8.63
2023-03-02T13:46:28.624Z,9.40
2023-03-02T13:49:10.750Z,5.47
2023-03-02T13:51:42.097Z,24.17
2023-03-02T13:54:20.893Z,7.70
2023-03-02T13:56:51.207Z,8.40
2023-03-02T13:59:21.378Z,7.83
2023-03-02T14:01:49.998Z,3.77
2023-03-02T14:04:23.472Z,7.83
2023-03-02T14:06:52.849Z,10.03
2023-03-02T14:09:21.202Z,9.17
2023-03-02T14:11:52.230Z,7.70
2023-03-02T14:14:23.096Z,9.47
2023-03-02T14:16:51.913Z,12.40
2023-03-02T14:19:22.031Z,11.20
2023-03-02T14:21:51.063Z,9.23
2023-03-02T14:24:19.179Z,7.73
2023-03-02T14:26:50.720Z,7.50
2023-03-02T14:29:23.478Z,7.70
2023-03-02T14:31:52.700Z,9.83
2023-03-02T14:34:22.231Z,5.97
2023-03-02T14:36:53.767Z,10.67
2023-03-02T14:39:24.537Z,7.60
2023-03-02T14:41:54.860Z,9.43
2023-03-02T14:44:24.384Z,8.93
2023-03-02T14:46:53.075Z,6.80
2023-03-02T14:49:22.851Z,8.23
2023-03-02T14:52:03.622Z,7.60
2023-03-02T14:54:39.063Z,8.17
2023-03-02T14:57:14.292Z,12.20
2023-03-02T14:59:42.867Z,11.13
2023-03-02T15:02:24.469Z,13.10
2023-03-02T15:04:57.069Z,7.97
2023-03-02T15:07:26.930Z,9.00
2023-03-02T15:09:55.935Z,9.47
2023-03-02T15:12:24.332Z,7.07
2023-03-02T15:14:52.969Z,8.83
2023-03-02T15:17:21.625Z,7.53
2023-03-02T15:19:49.741Z,18.70
2023-03-02T15:22:19.559Z,15.93
2023-03-02T15:24:47.940Z,16.77
2023-03-02T15:27:16.157Z,12.57
2023-03-02T15:29:45.591Z,17.50
2023-03-02T15:32:14.143Z,15.00
2023-03-02T15:37:43.528Z,14.60
2023-03-02T15:40:13.637Z,20.07
2023-03-02T15:42:42.129Z,16.53
2023-03-02T15:45:11.020Z,23.47
2023-03-02T15:47:39.613Z,19.47
2023-03-02T15:50:28.660Z,18.50
2023-03-02T15:52:57.486Z,18.07
2023-03-02T15:59:44.758Z,19.83
2023-03-02T16:02:13.481Z,21.43
2023-03-02T16:04:41.661Z,19.47
2023-03-02T16:07:11.466Z,32.17
2023-03-02T16:09:39.610Z,15.53
2023-03-02T16:12:08.034Z,70.33
2023-03-02T16:14:36.823Z,27.07
2023-03-02T16:17:05.135Z,17.63
2023-03-02T16:19:34.142Z,21.93
2023-03-02T16:22:02.566Z,19.73
2023-03-02T16:24:32.456Z,16.63
2023-03-02T16:27:00.653Z,20.57
2023-03-02T16:29:28.906Z,27.57
2023-03-02T16:31:58.116Z,19.73
2023-03-02T16:34:26.541Z,18.53
2023-03-02T16:36:56.567Z,21.77
2023-03-02T16:39:24.637Z,20.20
2023-03-02T16:41:54.287Z,22.33
2023-03-02T16:44:23.118Z,18.50
2023-03-02T16:46:58.953Z,28.47
2023-03-02T16:49:27.263Z,19.03
2023-03-02T16:51:59.151Z,19.27
2023-03-02T16:54:40.551Z,17.90
2023-03-02T16:57:10.374Z,18.33
2023-03-02T16:59:43.422Z,21.87
2023-03-02T17:02:12.374Z,24.23
2023-03-02T17:04:41.193Z,21.13
2023-03-02T17:07:09.921Z,18.00
2023-03-02T17:09:42.295Z,21.80
2023-03-02T17:12:12.530Z,27.50
2023-03-02T17:14:40.963Z,24.20
2023-03-02T17:17:09.160Z,34.23
2023-03-02T17:19:37.762Z,25.87
2023-03-02T17:22:07.321Z,25.20
2023-03-02T17:24:36.099Z,20.83
2023-03-02T17:27:13.122Z,27.43
2023-03-02T17:29:49.074Z,21.90
2023-03-02T17:32:18.354Z,20.97
2023-03-02T17:34:46.887Z,21.20
2023-03-02T17:37:17.436Z,23.93
2023-03-02T17:39:50.213Z,25.93
2023-03-02T17:42:18.466Z,22.93
2023-03-02T17:44:48.251Z,26.10
2023-03-02T17:47:17.202Z,19.17
2023-03-02T17:49:46.198Z,25.77
2023-03-02T17:52:18.340Z,29.53
2023-03-02T17:54:46.793Z,43.70
2023-03-02T17:57:15.211Z,24.50
2023-03-02T17:59:46.001Z,27.93
2023-03-02T18:02:15.974Z,23.47
2023-03-02T18:04:45.245Z,26.57
2023-03-02T18:07:14.233Z,20.13
2023-03-02T18:09:43.093Z,30.27
2023-03-02T18:12:11.513Z,31.07
2023-03-02T18:14:39.718Z,25.60
2023-03-02T18:17:09.412Z,21.30
2023-03-02T18:19:39.197Z,20.57
2023-03-02T18:22:07.419Z,27.17
2023-03-02T18:24:35.999Z,29.57
2023-03-02T18:27:06.174Z,21.60
2023-03-02T18:29:34.369Z,22.93
2023-03-02T18:32:02.887Z,22.87
2023-03-02T18:34:38.831Z,31.83
2023-03-02T18:37:09.236Z,21.33
2023-03-02T18:39:39.407Z,18.73
2023-03-02T18:42:08.271Z,21.80
2023-03-02T18:44:42.450Z,22.33
2023-03-02T18:47:21.726Z,19.23
2023-03-02T18:49:50.574Z,24.77
2023-03-02T18:52:23.197Z,22.40
2023-03-02T18:55:04.877Z,25.80
2023-03-02T18:57:33.945Z,19.63
2023-03-02T19:00:02.366Z,24.17
2023-03-02T19:02:31.429Z,29.10
2023-03-02T19:05:08.233Z,31.30
2023-03-02T19:07:37.850Z,21.83
2023-03-02T19:10:06.996Z,30.53
2023-03-02T19:12:36.902Z,30.53
2023-03-02T19:15:06.054Z,17.10
2023-03-02T19:17:34.408Z,25.60
2023-03-02T19:20:02.893Z,28.23
2023-03-02T19:22:31.280Z,39.30
2023-03-02T19:25:01.309Z,28.90
2023-03-02T19:27:29.665Z,25.37
2023-03-02T19:29:57.817Z,31.93
2023-03-02T19:32:26.352Z,23.13
2023-03-02T19:34:54.970Z,24.50
2023-03-02T19:37:23.286Z,21.90
2023-03-02T19:39:51.437Z,23.10
2023-03-02T19:42:22.363Z,23.90
2023-03-02T19:44:56.472Z,22.80
2023-03-02T19:47:25.856Z,24.10
2023-03-02T19:49:54.265Z,27.17
2023-03-02T19:52:22.909Z,29.00
2023-03-02T19:54:52.082Z,22.67
2023-03-02T19:57:25.177Z,25.40
2023-03-02T19:59:54.734Z,27.90
2023-03-02T20:02:29.035Z,19.90
2023-03-02T20:04:57.969Z,26.10
2023-03-02T20:07:26.281Z,27.13
2023-03-02T20:09:58.417Z,28.33
2023-03-02T20:12:30.775Z,21.93
2023-03-02T20:14:59.291Z,27.00
2023-03-02T20:17:28.739Z,21.17
2023-03-02T20:20:03.955Z,24.20
2023-03-02T20:22:33.908Z,23.90
2023-03-02T20:25:04.949Z,22.10
2023-03-02T20:27:36.182Z,24.47
2023-03-02T20:30:06.370Z,19.60
2023-03-02T20:32:35.769Z,29.93
2023-03-02T20:35:04.608Z,19.40
2023-03-02T20:37:35.149Z,18.97
2023-03-02T20:40:06.040Z,28.07
2023-03-02T20:42:36.918Z,17.60
2023-03-02T20:45:06.234Z,31.57
2023-03-02T20:47:34.622Z,20.80
2023-03-02T20:50:03.950Z,21.43
2023-03-02T20:52:32.767Z,22.23
2023-03-02T20:55:01.975Z,27.93
2023-03-02T20:57:30.183Z,26.27
2023-03-02T21:00:03.018Z,26.90
2023-03-02T21:02:31.401Z,23.10
2023-03-02T21:05:00.441Z,22.90
2023-03-02T21:07:28.835Z,18.93
2023-03-02T21:09:57.066Z,23.23
2023-03-02T21:12:25.420Z,18.53
2023-03-02T21:14:54.492Z,32.57
2023-03-02T21:17:29.038Z,28.83
2023-03-02T21:19:59.228Z,24.67
2023-03-02T21:22:27.562Z,25.17
2023-03-02T21:24:55.971Z,23.47
2023-03-02T21:27:24.523Z,24.00
2023-03-02T21:29:52.648Z,26.40
2023-03-02T21:32:21.544Z,38.50
2023-03-02T21:34:51.555Z,19.37
2023-03-02T21:37:20.012Z,16.17
2023-03-02T21:39:48.425Z,23.10
2023-03-02T21:42:16.906Z,23.50
2023-03-02T21:44:45.130Z,23.37
2023-03-02T21:47:15.802Z,29.50
2023-03-02T21:49:44.540Z,22.27
2023-03-02T21:52:14.524Z,25.60
2023-03-02T21:54:42.827Z,28.70
2023-03-02T21:57:10.924Z,29.60
2023-03-02T21:59:39.628Z,18.60
2023-03-02T22:02:07.620Z,28.60
2023-03-02T22:04:35.823Z,19.63
2023-03-02T22:07:03.893Z,28.30
2023-03-02T22:09:33.634Z,22.37
2023-03-02T22:12:02.322Z,20.50
2023-03-02T22:14:30.830Z,25.57
2023-03-02T22:17:00.050Z,17.90
2023-03-02T22:19:30.270Z,29.90
2023-03-02T22:22:01.317Z,31.40
2023-03-02T22:24:31.301Z,23.80
2023-03-02T22:27:10.332Z,26.23
2023-03-02T22:29:43.595Z,20.37
2023-03-02T22:32:19.283Z,29.17
2023-03-02T22:34:50.733Z,25.40
2023-03-02T22:37:20.616Z,22.27
2023-03-02T22:39:50.374Z,18.50
2023-03-02T22:42:22.499Z,23.63
2023-03-02T22:44:57.258Z,21.00
2023-03-02T22:47:26.337Z,22.27
2023-03-02T22:49:59.812Z,25.00
2023-03-02T22:52:35.730Z,20.53
2023-03-02T22:55:24.242Z,18.67
2023-03-02T22:57:54.423Z,27.97
2023-03-02T23:00:35.509Z,24.77
2023-03-02T23:03:12.909Z,15.90
2023-03-02T23:05:41.230Z,19.90
2023-03-02T23:08:20.978Z,18.63
2023-03-02T23:10:49.996Z,21.53
2023-03-02T23:13:21.882Z,22.60
2023-03-02T23:15:52.076Z,22.03
2023-03-02T23:18:24.683Z,21.50
2023-03-02T23:20:53.573Z,41.73
2023-03-02T23:23:24.352Z,19.80
2023-03-02T23:25:52.576Z,25.53
2023-03-02T23:28:22.326Z,25.50
2023-03-02T23:30:51.770Z,21.57
2023-03-02T23:33:19.906Z,21.33
2023-03-02T23:35:48.429Z,30.67
2023-03-02T23:38:16.800Z,24.37
2023-03-02T23:40:45.268Z,25.80
2023-03-02T23:43:13.725Z,27.07
2023-03-02T23:45:43.759Z,17.37
2023-03-02T23:48:12.163Z,15.60
2023-03-02T23:50:41.251Z,22.73
2023-03-02T23:53:09.302Z,23.53
2023-03-02T23:55:38.186Z,25.70
2023-03-02T23:58:06.338Z,23.70
